sensor_id;sensor_type;location;lat;lon;timestamp;P1;durP1;ratioP1;P2;durP2;ratioP2
29854;SDS011;16733;48.738;9.106;2023-03-03T00:01:13;51.88;;;20.70;;
29854;SDS011;16733;48.738;9.106;2023-03-03T00:03:39;43.45;;;16.40;;
29854;SDS011;16733;48.738;9.106;2023-03-03T00:06:05;40.00;;;15.95;;
29854;SDS011;16733;48.738;9.106;2023-03-03T00:08:34;40.65;;;15.40;;
29854;SDS011;16733;48.738;9.106;2023-03-03T00:11:00;42.05;;;15.18;;
29854;SDS011;16733;48.738;9.106;2023-03-03T00:13:29;37.08;;;15.07;;
29854;SDS011;16733;48.738;9.106;2023-03-03T00:16:10;34.42;;;13.95;;
29854;SDS011;16733;48.738;9.106;2023-03-03T00:18:47;34.17;;;14.20;;
29854;SDS011;16733;48.738;9.106;2023-03-03T00:24:10;33.35;;;14.07;;
29854;SDS011;16733;48.738;9.106;2023-03-03T00:26:37;31.15;;;14.05;;
29854;SDS011;16733;48.738;9.106;2023-03-03T00:32:07;28.17;;;12.85;;
29854;SDS011;16733;48.738;9.106;2023-03-03T00:34:44;35.42;;;12.95;;
29854;SDS011;16733;48.738;9.106;2023-03-03T00:37:19;35.42;;;14.23;;
29854;SDS011;16733;48.738;9.106;2023-03-03T00:39:47;33.05;;;12.45;;
29854;SDS011;16733;48.738;9.106;2023-03-03T00:42:13;31.45;;;12.63;;
29854;SDS011;16733;48.738;9.106;2023-03-03T00:47:23;34.53;;;12.80;;
29854;SDS011;16733;48.738;9.106;2023-03-03T00:55:30;29.25;;;12.63;;
29854;SDS011;16733;48.738;9.106;2023-03-03T00:57:56;33.28;;;13.68;;
29854;SDS011;16733;48.738;9.106;2023-03-03T01:00:22;32.35;;;13.43;;
29854;SDS011;16733;48.738;9.106;2023-03-03T01:02:47;28.88;;;12.45;;
29854;SDS011;16733;48.738;9.106;2023-03-03T01:05:14;35.13;;;14.00;;
29854;SDS011;16733;48.738;9.106;2023-03-03T01:07:41;31.83;;;12.98;;
29854;SDS011;16733;48.738;9.106;2023-03-03T01:10:07;26.05;;;11.48;;
29854;SDS011;16733;48.738;9.106;2023-03-03T01:12:34;28.48;;;13.18;;
29854;SDS011;16733;48.738;9.106;2023-03-03T01:15:00;33.15;;;13.15;;
29854;SDS011;16733;48.738;9.106;2023-03-03T01:17:26;35.08;;;13.43;;
29854;SDS011;16733;48.738;9.106;2023-03-03T01:19:52;28.70;;;13.20;;
29854;SDS011;16733;48.738;9.106;2023-03-03T01:22:18;39.15;;;14.00;;
29854;SDS011;16733;48.738;9.106;2023-03-03T01:24:43;34.80;;;13.48;;
29854;SDS011;16733;48.738;9.106;2023-03-03T01:27:09;39.08;;;14.30;;
29854;SDS011;16733;48.738;9.106;2023-03-03T01:29:35;31.98;;;12.63;;
29854;SDS011;16733;48.738;9.106;2023-03-03T01:32:00;31.83;;;14.07;;
29854;SDS011;16733;48.738;9.106;2023-03-03T01:34:26;33.45;;;12.35;;
29854;SDS011;16733;48.738;9.106;2023-03-03T01:36:51;28.88;;;13.07;;
29854;SDS011;16733;48.738;9.106;2023-03-03T01:39:17;33.22;;;13.30;;
29854;SDS011;16733;48.738;9.106;2023-03-03T01:41:43;31.85;;;12.45;;
29854;SDS011;16733;48.738;9.106;2023-03-03T01:44:14;34.25;;;14.23;;
29854;SDS011;16733;48.738;9.106;2023-03-03T01:46:47;28.10;;;12.32;;
29854;SDS011;16733;48.738;9.106;2023-03-03T01:49:20;29.58;;;12.90;;
29854;SDS011;16733;48.738;9.106;2023-03-03T01:51:57;29.75;;;11.95;;
29854;SDS011;16733;48.738;9.106;2023-03-03T01:54:33;27.77;;;12.60;;
29854;SDS011;16733;48.738;9.106;2023-03-03T01:57:04;38.10;;;12.70;;
29854;SDS011;16733;48.738;9.106;2023-03-03T01:59:35;32.10;;;13.25;;
29854;SDS011;16733;48.738;9.106;2023-03-03T02:02:05;25.58;;;12.55;;
29854;SDS011;16733;48.738;9.106;2023-03-03T02:04:32;32.60;;;13.13;;
29854;SDS011;16733;48.738;9.106;2023-03-03T02:07:04;33.75;;;13.27;;
29854;SDS011;16733;48.738;9.106;2023-03-03T02:09:47;31.77;;;13.15;;
29854;SDS011;16733;48.738;9.106;2023-03-03T02:17:42;27.52;;;12.35;;
29854;SDS011;16733;48.738;9.106;2023-03-03T02:22:43;33.72;;;13.20;;
29854;SDS011;16733;48.738;9.106;2023-03-03T02:25:17;29.75;;;12.80;;
29854;SDS011;16733;48.738;9.106;2023-03-03T02:27:51;30.25;;;12.82;;
29854;SDS011;16733;48.738;9.106;2023-03-03T02:30:19;33.90;;;13.75;;
29854;SDS011;16733;48.738;9.106;2023-03-03T02:32:46;35.17;;;13.90;;
29854;SDS011;16733;48.738;9.106;2023-03-03T02:35:24;29.75;;;12.35;;
29854;SDS011;16733;48.738;9.106;2023-03-03T02:40:32;28.27;;;11.57;;
29854;SDS011;16733;48.738;9.106;2023-03-03T02:43:03;26.02;;;11.13;;
29854;SDS011;16733;48.738;9.106;2023-03-03T02:45:31;36.83;;;12.52;;
29854;SDS011;16733;48.738;9.106;2023-03-03T02:47:56;28.65;;;12.20;;
29854;SDS011;16733;48.738;9.106;2023-03-03T02:50:22;34.30;;;12.85;;
29854;SDS011;16733;48.738;9.106;2023-03-03T02:52:48;35.75;;;13.57;;
29854;SDS011;16733;48.738;9.106;2023-03-03T02:55:13;30.98;;;12.98;;
29854;SDS011;16733;48.738;9.106;2023-03-03T02:57:39;27.23;;;12.77;;
29854;SDS011;16733;48.738;9.106;2023-03-03T03:00:05;31.10;;;12.68;;
29854;SDS011;16733;48.738;9.106;2023-03-03T03:02:31;31.48;;;12.95;;
29854;SDS011;16733;48.738;9.106;2023-03-03T03:04:56;31.25;;;12.50;;
29854;SDS011;16733;48.738;9.106;2023-03-03T03:07:22;31.05;;;12.18;;
29854;SDS011;16733;48.738;9.106;2023-03-03T03:09:48;28.73;;;13.40;;
29854;SDS011;16733;48.738;9.106;2023-03-03T03:12:13;32.85;;;12.13;;
29854;SDS011;16733;48.738;9.106;2023-03-03T03:14:40;34.10;;;13.05;;
29854;SDS011;16733;48.738;9.106;2023-03-03T03:17:05;32.47;;;12.63;;
29854;SDS011;16733;48.738;9.106;2023-03-03T03:19:31;36.75;;;12.80;;
29854;SDS011;16733;48.738;9.106;2023-03-03T03:21:56;31.27;;;13.65;;
29854;SDS011;16733;48.738;9.106;2023-03-03T03:24:22;33.55;;;12.13;;
29854;SDS011;16733;48.738;9.106;2023-03-03T03:26:49;29.65;;;12.85;;
29854;SDS011;16733;48.738;9.106;2023-03-03T03:29:14;40.28;;;12.27;;
29854;SDS011;16733;48.738;9.106;2023-03-03T03:31:40;31.08;;;11.80;;
29854;SDS011;16733;48.738;9.106;2023-03-03T03:34:07;28.05;;;12.40;;
29854;SDS011;16733;48.738;9.106;2023-03-03T03:36:33;31.77;;;13.55;;
29854;SDS011;16733;48.738;9.106;2023-03-03T03:38:58;32.97;;;14.05;;
29854;SDS011;16733;48.738;9.106;2023-03-03T03:41:26;28.95;;;13.48;;
29854;SDS011;16733;48.738;9.106;2023-03-03T03:43:52;33.00;;;13.05;;
29854;SDS011;16733;48.738;9.106;2023-03-03T03:46:17;33.97;;;14.05;;
29854;SDS011;16733;48.738;9.106;2023-03-03T03:48:43;35.38;;;13.85;;
29854;SDS011;16733;48.738;9.106;2023-03-03T03:51:10;33.38;;;13.32;;
29854;SDS011;16733;48.738;9.106;2023-03-03T03:53:36;30.38;;;13.82;;
29854;SDS011;16733;48.738;9.106;2023-03-03T03:56:01;33.75;;;13.90;;
29854;SDS011;16733;48.738;9.106;2023-03-03T03:58:27;33.38;;;14.30;;
29854;SDS011;16733;48.738;9.106;2023-03-03T04:00:52;39.47;;;14.80;;
29854;SDS011;16733;48.738;9.106;2023-03-03T04:03:18;37.95;;;15.00;;
29854;SDS011;16733;48.738;9.106;2023-03-03T04:05:44;37.13;;;14.00;;
29854;SDS011;16733;48.738;9.106;2023-03-03T04:08:10;38.70;;;14.98;;
29854;SDS011;16733;48.738;9.106;2023-03-03T04:10:36;35.97;;;14.82;;
29854;SDS011;16733;48.738;9.106;2023-03-03T04:13:01;42.65;;;14.77;;
29854;SDS011;16733;48.738;9.106;2023-03-03T04:15:27;32.47;;;13.40;;
29854;SDS011;16733;48.738;9.106;2023-03-03T04:17:52;34.35;;;14.73;;
29854;SDS011;16733;48.738;9.106;2023-03-03T04:20:18;36.97;;;14.93;;
29854;SDS011;16733;48.738;9.106;2023-03-03T04:22:44;34.70;;;14.38;;
29854;SDS011;16733;48.738;9.106;2023-03-03T04:25:11;44.17;;;15.73;;
29854;SDS011;16733;48.738;9.106;2023-03-03T04:27:39;33.08;;;14.10;;
29854;SDS011;16733;48.738;9.106;2023-03-03T04:30:05;34.53;;;15.10;;
29854;SDS011;16733;48.738;9.106;2023-03-03T04:32:31;38.13;;;15.52;;
29854;SDS011;16733;48.738;9.106;2023-03-03T04:35:00;39.58;;;13.43;;
29854;SDS011;16733;48.738;9.106;2023-03-03T04:37:26;31.00;;;14.88;;
29854;SDS011;16733;48.738;9.106;2023-03-03T04:39:51;40.08;;;15.02;;
29854;SDS011;16733;48.738;9.106;2023-03-03T04:42:17;42.10;;;15.88;;
29854;SDS011;16733;48.738;9.106;2023-03-03T04:44:43;41.08;;;15.75;;
29854;SDS011;16733;48.738;9.106;2023-03-03T04:47:08;39.92;;;15.40;;
29854;SDS011;16733;48.738;9.106;2023-03-03T04:49:34;38.53;;;15.13;;
29854;SDS011;16733;48.738;9.106;2023-03-03T04:52:00;35.28;;;15.40;;
29854;SDS011;16733;48.738;9.106;2023-03-03T04:54:25;39.53;;;16.23;;
29854;SDS011;16733;48.738;9.106;2023-03-03T04:56:51;40.47;;;16.27;;
29854;SDS011;16733;48.738;9.106;2023-03-03T04:59:17;40.80;;;16.35;;
29854;SDS011;16733;48.738;9.106;2023-03-03T05:01:42;37.05;;;15.68;;
29854;SDS011;16733;48.738;9.106;2023-03-03T05:04:10;37.83;;;15.90;;
29854;SDS011;16733;48.738;9.106;2023-03-03T05:06:36;41.28;;;17.35;;
29854;SDS011;16733;48.738;9.106;2023-03-03T05:09:01;44.92;;;16.10;;
29854;SDS011;16733;48.738;9.106;2023-03-03T05:11:27;37.30;;;15.80;;
29854;SDS011;16733;48.738;9.106;2023-03-03T05:13:53;35.60;;;15.35;;
29854;SDS011;16733;48.738;9.106;2023-03-03T05:16:18;35.33;;;15.13;;
29854;SDS011;16733;48.738;9.106;2023-03-03T05:18:44;38.65;;;16.23;;
29854;SDS011;16733;48.738;9.106;2023-03-03T05:21:11;44.33;;;16.30;;
29854;SDS011;16733;48.738;9.106;2023-03-03T05:23:37;41.45;;;16.20;;
29854;SDS011;16733;48.738;9.106;2023-03-03T05:26:05;42.85;;;16.33;;
29854;SDS011;16733;48.738;9.106;2023-03-03T05:28:31;44.67;;;15.65;;
29854;SDS011;16733;48.738;9.106;2023-03-03T05:30:57;43.80;;;16.45;;
29854;SDS011;16733;48.738;9.106;2023-03-03T05:33:22;47.92;;;16.15;;
29854;SDS011;16733;48.738;9.106;2023-03-03T05:35:52;39.75;;;15.75;;
29854;SDS011;16733;48.738;9.106;2023-03-03T05:38:19;38.25;;;16.15;;
29854;SDS011;16733;48.738;9.106;2023-03-03T05:40:44;37.67;;;16.33;;
29854;SDS011;16733;48.738;9.106;2023-03-03T05:43:11;40.05;;;15.85;;
29854;SDS011;16733;48.738;9.106;2023-03-03T05:45:36;46.90;;;17.00;;
29854;SDS011;16733;48.738;9.106;2023-03-03T05:48:02;35.63;;;15.93;;
29854;SDS011;16733;48.738;9.106;2023-03-03T05:50:29;43.42;;;16.00;;
29854;SDS011;16733;48.738;9.106;2023-03-03T05:52:55;49.22;;;17.80;;
29854;SDS011;16733;48.738;9.106;2023-03-03T05:55:21;41.53;;;17.80;;
29854;SDS011;16733;48.738;9.106;2023-03-03T05:57:46;43.95;;;16.75;;
29854;SDS011;16733;48.738;9.106;2023-03-03T06:00:13;41.13;;;15.90;;
29854;SDS011;16733;48.738;9.106;2023-03-03T06:02:40;45.95;;;17.05;;
29854;SDS011;16733;48.738;9.106;2023-03-03T06:05:06;36.58;;;15.85;;
29854;SDS011;16733;48.738;9.106;2023-03-03T06:07:32;37.80;;;14.88;;
29854;SDS011;16733;48.738;9.106;2023-03-03T06:09:58;37.20;;;16.05;;
29854;SDS011;16733;48.738;9.106;2023-03-03T06:12:23;34.55;;;15.45;;
29854;SDS011;16733;48.738;9.106;2023-03-03T06:14:49;34.30;;;14.75;;
29854;SDS011;16733;48.738;9.106;2023-03-03T06:17:14;44.38;;;16.65;;
29854;SDS011;16733;48.738;9.106;2023-03-03T06:19:40;43.65;;;16.80;;
29854;SDS011;16733;48.738;9.106;2023-03-03T06:22:06;42.28;;;17.30;;
29854;SDS011;16733;48.738;9.106;2023-03-03T06:24:32;39.03;;;16.73;;
29854;SDS011;16733;48.738;9.106;2023-03-03T06:26:58;40.03;;;15.80;;
29854;SDS011;16733;48.738;9.106;2023-03-03T06:29:25;44.65;;;17.58;;
29854;SDS011;16733;48.738;9.106;2023-03-03T06:31:51;41.80;;;17.40;;
29854;SDS011;16733;48.738;9.106;2023-03-03T06:34:17;43.08;;;16.52;;
29854;SDS011;16733;48.738;9.106;2023-03-03T06:36:42;42.45;;;14.77;;
29854;SDS011;16733;48.738;9.106;2023-03-03T06:39:08;40.70;;;16.55;;
29854;SDS011;16733;48.738;9.106;2023-03-03T06:41:34;40.47;;;15.65;;
29854;SDS011;16733;48.738;9.106;2023-03-03T06:43:59;44.72;;;16.08;;
29854;SDS011;16733;48.738;9.106;2023-03-03T06:46:25;46.15;;;15.93;;
29854;SDS011;16733;48.738;9.106;2023-03-03T06:48:51;41.80;;;15.57;;
29854;SDS011;16733;48.738;9.106;2023-03-03T06:53:53;36.75;;;15.18;;
29854;SDS011;16733;48.738;9.106;2023-03-03T06:56:20;38.50;;;15.02;;
29854;SDS011;16733;48.738;9.106;2023-03-03T06:58:52;44.40;;;16.38;;
29854;SDS011;16733;48.738;9.106;2023-03-03T07:01:22;45.78;;;16.70;;
29854;SDS011;16733;48.738;9.106;2023-03-03T07:03:47;48.90;;;15.55;;
29854;SDS011;16733;48.738;9.106;2023-03-03T07:06:21;40.42;;;15.38;;
29854;SDS011;16733;48.738;9.106;2023-03-03T07:08:48;36.47;;;15.15;;
29854;SDS011;16733;48.738;9.106;2023-03-03T07:11:17;42.95;;;16.70;;
29854;SDS011;16733;48.738;9.106;2023-03-03T07:13:46;38.50;;;14.90;;
29854;SDS011;16733;48.738;9.106;2023-03-03T07:16:13;44.83;;;16.00;;
29854;SDS011;16733;48.738;9.106;2023-03-03T07:21:19;37.22;;;14.98;;
29854;SDS011;16733;48.738;9.106;2023-03-03T07:23:50;37.55;;;13.82;;
29854;SDS011;16733;48.738;9.106;2023-03-03T07:26:18;36.67;;;14.27;;
29854;SDS011;16733;48.738;9.106;2023-03-03T07:28:55;30.70;;;13.57;;
29854;SDS011;16733;48.738;9.106;2023-03-03T07:31:38;36.95;;;14.30;;
29854;SDS011;16733;48.738;9.106;2023-03-03T07:34:22;30.95;;;13.35;;
29854;SDS011;16733;48.738;9.106;2023-03-03T07:36:54;31.45;;;13.85;;
29854;SDS011;16733;48.738;9.106;2023-03-03T07:44:41;31.98;;;12.77;;
29854;SDS011;16733;48.738;9.106;2023-03-03T07:49:48;39.38;;;14.23;;
29854;SDS011;16733;48.738;9.106;2023-03-03T07:54:59;32.33;;;13.75;;
29854;SDS011;16733;48.738;9.106;2023-03-03T07:57:37;38.03;;;14.88;;
29854;SDS011;16733;48.738;9.106;2023-03-03T08:02:43;34.22;;;13.98;;
29854;SDS011;16733;48.738;9.106;2023-03-03T08:07:55;37.25;;;15.25;;
29854;SDS011;16733;48.738;9.106;2023-03-03T08:13:21;37.40;;;14.30;;
29854;SDS011;16733;48.738;9.106;2023-03-03T08:15:49;41.70;;;14.32;;
29854;SDS011;16733;48.738;9.106;2023-03-03T08:18:23;29.50;;;13.52;;
29854;SDS011;16733;48.738;9.106;2023-03-03T08:20:54;39.97;;;14.35;;
29854;SDS011;16733;48.738;9.106;2023-03-03T08:23:21;30.55;;;13.45;;
29854;SDS011;16733;48.738;9.106;2023-03-03T08:25:48;32.22;;;13.88;;
29854;SDS011;16733;48.738;9.106;2023-03-03T08:28:14;43.00;;;15.65;;
29854;SDS011;16733;48.738;9.106;2023-03-03T08:30:41;32.92;;;13.43;;
29854;SDS011;16733;48.738;9.106;2023-03-03T08:33:07;38.20;;;15.30;;
29854;SDS011;16733;48.738;9.106;2023-03-03T08:35:33;38.42;;;14.65;;
29854;SDS011;16733;48.738;9.106;2023-03-03T08:37:59;36.35;;;14.05;;
29854;SDS011;16733;48.738;9.106;2023-03-03T08:40:25;39.67;;;13.98;;
29854;SDS011;16733;48.738;9.106;2023-03-03T08:42:50;34.75;;;15.18;;
29854;SDS011;16733;48.738;9.106;2023-03-03T08:45:16;32.47;;;13.70;;
29854;SDS011;16733;48.738;9.106;2023-03-03T08:47:41;37.10;;;13.90;;
29854;SDS011;16733;48.738;9.106;2023-03-03T08:50:09;35.70;;;14.38;;
29854;SDS011;16733;48.738;9.106;2023-03-03T08:52:35;35.30;;;14.32;;
29854;SDS011;16733;48.738;9.106;2023-03-03T08:55:01;34.88;;;15.35;;
29854;SDS011;16733;48.738;9.106;2023-03-03T08:57:27;38.97;;;15.27;;
29854;SDS011;16733;48.738;9.106;2023-03-03T08:59:53;36.50;;;14.40;;
29854;SDS011;16733;48.738;9.106;2023-03-03T09:02:18;33.45;;;14.57;;
29854;SDS011;16733;48.738;9.106;2023-03-03T09:04:44;36.15;;;14.02;;
29854;SDS011;16733;48.738;9.106;2023-03-03T09:07:10;39.22;;;15.73;;
29854;SDS011;16733;48.738;9.106;2023-03-03T09:09:35;35.35;;;15.43;;
29854;SDS011;16733;48.738;9.106;2023-03-03T09:12:05;44.53;;;16.13;;
29854;SDS011;16733;48.738;9.106;2023-03-03T09:14:45;39.67;;;14.50;;
29854;SDS011;16733;48.738;9.106;2023-03-03T09:17:45;39.45;;;15.20;;
29854;SDS011;16733;48.738;9.106;2023-03-03T09:20:26;36.05;;;14.98;;
29854;SDS011;16733;48.738;9.106;2023-03-03T09:22:49;38.28;;;15.07;;
29854;SDS011;16733;48.738;9.106;2023-03-03T09:25:36;43.30;;;16.63;;
29854;SDS011;16733;48.738;9.106;2023-03-03T09:28:02;34.15;;;14.35;;
29854;SDS011;16733;48.738;9.106;2023-03-03T09:30:30;35.28;;;15.40;;
29854;SDS011;16733;48.738;9.106;2023-03-03T09:32:58;45.20;;;15.43;;
29854;SDS011;16733;48.738;9.106;2023-03-03T09:35:26;32.67;;;14.98;;
29854;SDS011;16733;48.738;9.106;2023-03-03T09:38:00;39.88;;;15.25;;
29854;SDS011;16733;48.738;9.106;2023-03-03T09:43:19;34.47;;;14.60;;
29854;SDS011;16733;48.738;9.106;2023-03-03T09:51:41;33.75;;;14.73;;
29854;SDS011;16733;48.738;9.106;2023-03-03T09:54:15;33.08;;;13.18;;
29854;SDS011;16733;48.738;9.106;2023-03-03T09:57:05;36.00;;;13.65;;
29854;SDS011;16733;48.738;9.106;2023-03-03T09:59:48;28.83;;;13.07;;
29854;SDS011;16733;48.738;9.106;2023-03-03T10:13:14;31.08;;;13.40;;
29854;SDS011;16733;48.738;9.106;2023-03-03T10:15:57;28.20;;;12.77;;
29854;SDS011;16733;48.738;9.106;2023-03-03T10:40:20;29.75;;;13.35;;
29854;SDS011;16733;48.738;9.106;2023-03-03T10:45:38;29.02;;;14.38;;
29854;SDS011;16733;48.738;9.106;2023-03-03T10:57:14;33.97;;;16.15;;
29854;SDS011;16733;48.738;9.106;2023-03-03T11:03:06;31.58;;;14.52;;
29854;SDS011;16733;48.738;9.106;2023-03-03T11:05:39;33.22;;;15.48;;
29854;SDS011;16733;48.738;9.106;2023-03-03T11:08:15;29.45;;;15.73;;
29854;SDS011;16733;48.738;9.106;2023-03-03T11:13:20;31.42;;;13.35;;
29854;SDS011;16733;48.738;9.106;2023-03-03T11:18:45;33.42;;;14.93;;
29854;SDS011;16733;48.738;9.106;2023-03-03T11:21:30;31.63;;;14.85;;
29854;SDS011;16733;48.738;9.106;2023-03-03T11:40:46;29.17;;;13.73;;
29854;SDS011;16733;48.738;9.106;2023-03-03T11:43:16;30.88;;;14.52;;
29854;SDS011;16733;48.738;9.106;2023-03-03T11:45:51;32.42;;;14.13;;
29854;SDS011;16733;48.738;9.106;2023-03-03T11:50:59;32.88;;;15.18;;
29854;SDS011;16733;48.738;9.106;2023-03-03T11:56:34;34.72;;;14.68;;
29854;SDS011;16733;48.738;9.106;2023-03-03T11:59:28;27.08;;;14.15;;
29854;SDS011;16733;48.738;9.106;2023-03-03T12:07:28;31.98;;;14.02;;
29854;SDS011;16733;48.738;9.106;2023-03-03T12:10:13;28.17;;;16.70;;
29854;SDS011;16733;48.738;9.106;2023-03-03T12:24:30;31.52;;;14.07;;
29854;SDS011;16733;48.738;9.106;2023-03-03T12:37:17;35.03;;;15.43;;
29854;SDS011;16733;48.738;9.106;2023-03-03T12:39:54;34.17;;;13.30;;
29854;SDS011;16733;48.738;9.106;2023-03-03T12:45:15;33.67;;;15.38;;
29854;SDS011;16733;48.738;9.106;2023-03-03T12:47:45;33.08;;;14.88;;
29854;SDS011;16733;48.738;9.106;2023-03-03T12:50:22;25.48;;;14.15;;
29854;SDS011;16733;48.738;9.106;2023-03-03T12:56:04;28.05;;;14.65;;
29854;SDS011;16733;48.738;9.106;2023-03-03T13:04:40;31.92;;;13.63;;
29854;SDS011;16733;48.738;9.106;2023-03-03T13:10:26;26.70;;;14.45;;
29854;SDS011;16733;48.738;9.106;2023-03-03T13:15:38;29.23;;;15.50;;
29854;SDS011;16733;48.738;9.106;2023-03-03T13:21:04;30.30;;;14.35;;
29854;SDS011;16733;48.738;9.106;2023-03-03T13:23:50;28.50;;;15.57;;
29854;SDS011;16733;48.738;9.106;2023-03-03T13:26:28;31.48;;;14.93;;
29854;SDS011;16733;48.738;9.106;2023-03-03T13:29:14;27.73;;;15.40;;
29854;SDS011;16733;48.738;9.106;2023-03-03T13:34:41;35.17;;;15.20;;
29854;SDS011;16733;48.738;9.106;2023-03-03T13:37:20;28.45;;;14.35;;
29854;SDS011;16733;48.738;9.106;2023-03-03T13:40:18;34.42;;;15.80;;
29854;SDS011;16733;48.738;9.106;2023-03-03T14:04:49;29.73;;;14.73;;
29854;SDS011;16733;48.738;9.106;2023-03-03T14:07:20;34.17;;;16.17;;
29854;SDS011;16733;48.738;9.106;2023-03-03T14:10:02;30.73;;;13.90;;
29854;SDS011;16733;48.738;9.106;2023-03-03T14:20:38;30.80;;;16.75;;
29854;SDS011;16733;48.738;9.106;2023-03-03T14:23:11;27.15;;;14.80;;
29854;SDS011;16733;48.738;9.106;2023-03-03T14:28:22;32.85;;;16.50;;
29854;SDS011;16733;48.738;9.106;2023-03-03T14:30:51;31.23;;;16.48;;
29854;SDS011;16733;48.738;9.106;2023-03-03T14:33:20;37.15;;;16.63;;
29854;SDS011;16733;48.738;9.106;2023-03-03T14:35:59;26.95;;;14.52;;
29854;SDS011;16733;48.738;9.106;2023-03-03T14:41:04;30.85;;;16.02;;
29854;SDS011;16733;48.738;9.106;2023-03-03T14:43:35;36.97;;;16.77;;
29854;SDS011;16733;48.738;9.106;2023-03-03T14:49:01;31.60;;;16.50;;
29854;SDS011;16733;48.738;9.106;2023-03-03T14:51:45;34.10;;;16.88;;
29854;SDS011;16733;48.738;9.106;2023-03-03T14:54:23;30.95;;;15.25;;
29854;SDS011;16733;48.738;9.106;2023-03-03T14:56:59;40.28;;;15.93;;
29854;SDS011;16733;48.738;9.106;2023-03-03T14:59:29;27.15;;;13.95;;
29854;SDS011;16733;48.738;9.106;2023-03-03T15:01:56;27.92;;;14.38;;
29854;SDS011;16733;48.738;9.106;2023-03-03T15:04:38;29.80;;;15.85;;
29854;SDS011;16733;48.738;9.106;2023-03-03T15:07:18;30.77;;;16.00;;
29854;SDS011;16733;48.738;9.106;2023-03-03T15:10:05;31.27;;;14.05;;
29854;SDS011;16733;48.738;9.106;2023-03-03T15:17:52;31.93;;;16.53;;
29854;SDS011;16733;48.738;9.106;2023-03-03T15:34:23;29.42;;;15.77;;
29854;SDS011;16733;48.738;9.106;2023-03-03T15:39:57;36.50;;;17.83;;
29854;SDS011;16733;48.738;9.106;2023-03-03T15:42:32;32.70;;;15.10;;
29854;SDS011;16733;48.738;9.106;2023-03-03T15:48:20;36.45;;;16.15;;
29854;SDS011;16733;48.738;9.106;2023-03-03T15:55:58;32.13;;;15.93;;
29854;SDS011;16733;48.738;9.106;2023-03-03T16:03:55;36.67;;;18.15;;
29854;SDS011;16733;48.738;9.106;2023-03-03T16:06:55;40.13;;;16.08;;
29854;SDS011;16733;48.738;9.106;2023-03-03T16:20:05;35.72;;;18.27;;
29854;SDS011;16733;48.738;9.106;2023-03-03T16:23:07;34.70;;;15.88;;
29854;SDS011;16733;48.738;9.106;2023-03-03T16:26:06;35.53;;;16.13;;
29854;SDS011;16733;48.738;9.106;2023-03-03T16:28:49;37.70;;;14.60;;
29854;SDS011;16733;48.738;9.106;2023-03-03T16:31:36;38.58;;;17.67;;
29854;SDS011;16733;48.738;9.106;2023-03-03T16:42:20;33.92;;;15.20;;
29854;SDS011;16733;48.738;9.106;2023-03-03T16:55:36;34.38;;;15.55;;
29854;SDS011;16733;48.738;9.106;2023-03-03T17:01:42;31.48;;;14.63;;
29854;SDS011;16733;48.738;9.106;2023-03-03T17:07:14;29.08;;;13.95;;
29854;SDS011;16733;48.738;9.106;2023-03-03T17:15:19;37.55;;;14.85;;
29854;SDS011;16733;48.738;9.106;2023-03-03T17:17:53;36.75;;;17.95;;
29854;SDS011;16733;48.738;9.106;2023-03-03T17:20:29;31.30;;;15.50;;
29854;SDS011;16733;48.738;9.106;2023-03-03T17:26:11;33.13;;;14.68;;
29854;SDS011;16733;48.738;9.106;2023-03-03T17:37:36;39.78;;;16.42;;
29854;SDS011;16733;48.738;9.106;2023-03-03T17:43:06;36.92;;;16.05;;
29854;SDS011;16733;48.738;9.106;2023-03-03T17:45:38;33.50;;;14.55;;
29854;SDS011;16733;48.738;9.106;2023-03-03T17:48:11;35.78;;;15.85;;
29854;SDS011;16733;48.738;9.106;2023-03-03T18:02:08;33.33;;;14.63;;
29854;SDS011;16733;48.738;9.106;2023-03-03T18:05:10;33.28;;;15.02;;
29854;SDS011;16733;48.738;9.106;2023-03-03T18:10:48;34.20;;;16.02;;
29854;SDS011;16733;48.738;9.106;2023-03-03T18:26:53;37.50;;;14.27;;
29854;SDS011;16733;48.738;9.106;2023-03-03T18:29:20;35.10;;;15.73;;
29854;SDS011;16733;48.738;9.106;2023-03-03T18:44:36;35.22;;;14.00;;
29854;SDS011;16733;48.738;9.106;2023-03-03T18:47:02;39.97;;;14.90;;
29854;SDS011;16733;48.738;9.106;2023-03-03T18:55:27;31.55;;;13.50;;
29854;SDS011;16733;48.738;9.106;2023-03-03T19:00:41;36.03;;;14.73;;
29854;SDS011;16733;48.738;9.106;2023-03-03T19:05:56;33.78;;;14.25;;
29854;SDS011;16733;48.738;9.106;2023-03-03T19:08:25;38.83;;;14.85;;
29854;SDS011;16733;48.738;9.106;2023-03-03T19:11:29;30.35;;;14.52;;
29854;SDS011;16733;48.738;9.106;2023-03-03T19:14:10;38.83;;;15.43;;
29854;SDS011;16733;48.738;9.106;2023-03-03T19:16:49;36.05;;;14.90;;
29854;SDS011;16733;48.738;9.106;2023-03-03T19:19:18;37.08;;;15.27;;
29854;SDS011;16733;48.738;9.106;2023-03-03T19:25:51;36.60;;;14.65;;
29854;SDS011;16733;48.738;9.106;2023-03-03T19:39:15;37.92;;;14.68;;
29854;SDS011;16733;48.738;9.106;2023-03-03T19:47:01;32.15;;;15.05;;
29854;SDS011;16733;48.738;9.106;2023-03-03T19:52:23;39.00;;;14.90;;
29854;SDS011;16733;48.738;9.106;2023-03-03T19:57:47;41.47;;;15.10;;
29854;SDS011;16733;48.738;9.106;2023-03-03T20:00:21;37.33;;;14.57;;
29854;SDS011;16733;48.738;9.106;2023-03-03T20:08:40;34.85;;;13.77;;
29854;SDS011;16733;48.738;9.106;2023-03-03T20:16:50;38.00;;;14.95;;
29854;SDS011;16733;48.738;9.106;2023-03-03T20:27:19;34.40;;;13.90;;
29854;SDS011;16733;48.738;9.106;2023-03-03T20:32:58;30.60;;;13.23;;
29854;SDS011;16733;48.738;9.106;2023-03-03T20:38:38;31.00;;;13.38;;
29854;SDS011;16733;48.738;9.106;2023-03-03T20:43:46;32.15;;;12.98;;
29854;SDS011;16733;48.738;9.106;2023-03-03T20:46:50;31.90;;;13.07;;
29854;SDS011;16733;48.738;9.106;2023-03-03T20:57:50;33.58;;;13.35;;
29854;SDS011;16733;48.738;9.106;2023-03-03T21:00:51;27.23;;;13.05;;
29854;SDS011;16733;48.738;9.106;2023-03-03T21:03:32;33.28;;;12.43;;
29854;SDS011;16733;48.738;9.106;2023-03-03T21:06:16;31.42;;;12.35;;
29854;SDS011;16733;48.738;9.106;2023-03-03T21:13:54;32.75;;;13.70;;
29854;SDS011;16733;48.738;9.106;2023-03-03T21:21:41;30.25;;;13.13;;
29854;SDS011;16733;48.738;9.106;2023-03-03T21:24:10;29.83;;;12.02;;
29854;SDS011;16733;48.738;9.106;2023-03-03T21:31:50;31.73;;;13.13;;
29854;SDS011;16733;48.738;9.106;2023-03-03T21:34:21;30.77;;;12.73;;
29854;SDS011;16733;48.738;9.106;2023-03-03T21:36:48;30.13;;;13.38;;
29854;SDS011;16733;48.738;9.106;2023-03-03T21:39:18;30.98;;;12.77;;
29854;SDS011;16733;48.738;9.106;2023-03-03T21:41:58;36.38;;;13.77;;
29854;SDS011;16733;48.738;9.106;2023-03-03T21:44:28;31.00;;;13.07;;
29854;SDS011;16733;48.738;9.106;2023-03-03T21:46:54;30.52;;;12.43;;
29854;SDS011;16733;48.738;9.106;2023-03-03T21:49:20;30.77;;;13.90;;
29854;SDS011;16733;48.738;9.106;2023-03-03T21:51:45;37.42;;;13.77;;
29854;SDS011;16733;48.738;9.106;2023-03-03T21:54:11;32.50;;;13.10;;
29854;SDS011;16733;48.738;9.106;2023-03-03T21:56:36;38.67;;;12.98;;
29854;SDS011;16733;48.738;9.106;2023-03-03T21:59:05;40.58;;;15.07;;
29854;SDS011;16733;48.738;9.106;2023-03-03T22:01:34;29.83;;;13.15;;
29854;SDS011;16733;48.738;9.106;2023-03-03T22:04:00;31.40;;;13.30;;
29854;SDS011;16733;48.738;9.106;2023-03-03T22:06:26;34.30;;;13.60;;